createdAt,value
2018-04-12T00:00:59.541Z,10.60
2018-04-12T00:03:27.954Z,10.50
2018-04-12T00:05:56.304Z,10.40
2018-04-12T00:08:24.611Z,10.40
2018-04-12T00:10:53.692Z,10.30
2018-04-12T00:13:23.174Z,10.30
2018-04-12T00:15:51.489Z,10.20
2018-04-12T00:18:20.668Z,10.20
2018-04-12T00:20:49.002Z,10.10
2018-04-12T00:23:17.331Z,10.10
2018-04-12T00:25:45.648Z,10.10
2018-04-12T00:28:14.741Z,10.00
2018-04-12T00:30:43.816Z,10.00
2018-04-12T00:33:12.122Z,10.00
2018-04-12T00:35:41.192Z,9.90
2018-04-12T00:38:09.549Z,9.90
2018-04-12T00:40:37.855Z,9.90
2018-04-12T00:43:06.856Z,9.80
2018-04-12T00:45:35.149Z,9.80
2018-04-12T00:48:04.232Z,9.80
2018-04-12T00:50:32.541Z,9.70
2018-04-12T00:53:01.620Z,9.70
2018-04-12T00:55:29.943Z,9.70
2018-04-12T00:57:58.259Z,9.70
2018-04-12T01:00:26.604Z,9.70
2018-04-12T01:02:54.923Z,9.70
2018-04-12T01:05:23.256Z,9.70
2018-04-12T01:07:52.365Z,9.70
2018-04-12T01:10:20.748Z,9.70
2018-04-12T01:12:49.054Z,9.60
2018-04-12T01:15:17.362Z,9.60
2018-04-12T01:17:45.662Z,9.60
2018-04-12T01:20:14.784Z,9.40
2018-04-12T01:22:43.102Z,9.40
2018-04-12T01:25:12.048Z,9.40
2018-04-12T01:27:40.365Z,9.40
2018-04-12T01:30:08.685Z,9.30
2018-04-12T01:32:36.982Z,9.30
2018-04-12T01:35:06.072Z,9.30
2018-04-12T01:37:35.243Z,9.30
2018-04-12T01:40:03.561Z,9.20
2018-04-12T01:42:32.620Z,9.20
2018-04-12T01:45:00.937Z,9.10
2018-04-12T01:47:30.045Z,9.10
2018-04-12T01:49:59.159Z,9.10
2018-04-12T01:52:27.499Z,9.10
2018-04-12T01:54:55.815Z,9.10
2018-04-12T01:57:24.113Z,9.00
2018-04-12T01:59:52.402Z,9.00
2018-04-12T02:02:20.726Z,9.00
2018-04-12T02:04:49.057Z,9.00
2018-04-12T02:07:17.376Z,9.00
2018-04-12T02:09:45.702Z,8.90
2018-04-12T02:12:14.017Z,8.90
2018-04-12T02:14:42.337Z,8.90
2018-04-12T02:17:11.531Z,8.90
2018-04-12T02:19:39.851Z,8.80
2018-04-12T02:22:08.246Z,8.90
2018-04-12T02:24:36.547Z,8.90
2018-04-12T02:27:04.839Z,8.90
2018-04-12T02:29:33.155Z,9.00
2018-04-12T02:32:02.265Z,9.10
2018-04-12T02:34:30.592Z,9.10
2018-04-12T02:36:58.889Z,9.10
2018-04-12T02:39:27.217Z,9.20
2018-04-12T02:41:55.525Z,9.20
2018-04-12T02:44:23.824Z,9.30
2018-04-12T02:46:52.126Z,9.30
2018-04-12T02:49:21.200Z,9.40
2018-04-12T02:51:49.597Z,9.30
2018-04-12T02:54:17.922Z,9.30
2018-04-12T02:56:46.241Z,9.30
2018-04-12T02:59:14.544Z,9.30
2018-04-12T03:01:42.900Z,9.30
2018-04-12T03:04:11.224Z,9.20
2018-04-12T03:06:40.288Z,9.10
2018-04-12T03:09:08.596Z,9.10
2018-04-12T03:11:37.674Z,8.90
2018-04-12T03:14:05.985Z,9.00
2018-04-12T03:16:35.070Z,8.80
2018-04-12T03:19:04.134Z,8.80
2018-04-12T03:21:32.471Z,8.70
2018-04-12T03:24:00.778Z,8.70
2018-04-12T03:26:29.076Z,8.60
2018-04-12T03:28:57.377Z,8.60
2018-04-12T03:31:25.690Z,8.50
2018-04-12T03:33:54.002Z,8.50
2018-04-12T03:36:22.526Z,8.40
2018-04-12T03:38:50.852Z,8.40
2018-04-12T03:41:19.149Z,8.40
2018-04-12T03:43:47.465Z,8.40
2018-04-12T03:46:15.771Z,8.30
2018-04-12T03:48:44.958Z,8.30
2018-04-12T03:51:13.917Z,8.40
2018-04-12T03:53:42.998Z,8.30
2018-04-12T03:56:11.301Z,8.30
2018-04-12T03:58:39.595Z,8.30
2018-04-12T04:01:07.934Z,8.30
2018-04-12T04:03:36.399Z,8.30
2018-04-12T04:06:05.505Z,8.30
2018-04-12T04:08:33.793Z,8.30
2018-04-12T04:11:02.128Z,8.30
2018-04-12T04:13:30.469Z,8.30
2018-04-12T04:16:16.560Z,8.30
2018-04-12T04:19:02.750Z,8.30
2018-04-12T04:21:31.050Z,8.30
2018-04-12T04:23:59.344Z,8.30
2018-04-12T04:26:28.512Z,8.30
2018-04-12T04:28:56.801Z,8.30
2018-04-12T04:31:25.125Z,8.30
2018-04-12T04:33:54.221Z,8.30
2018-04-12T04:36:23.287Z,8.30
2018-04-12T04:38:51.618Z,8.20
2018-04-12T04:41:19.934Z,8.20
2018-04-12T04:43:48.235Z,8.20
2018-04-12T04:46:16.552Z,8.20
2018-04-12T04:48:45.619Z,8.20
2018-04-12T04:51:13.933Z,8.20
2018-04-12T04:53:43.029Z,8.20
2018-04-12T04:56:12.091Z,8.30
2018-04-12T04:58:40.383Z,8.20
2018-04-12T05:01:08.707Z,8.30
2018-04-12T05:03:37.024Z,8.40
2018-04-12T05:06:05.311Z,8.50
2018-04-12T05:08:33.622Z,8.50
2018-04-12T05:11:02.705Z,8.80
2018-04-12T05:13:31.013Z,8.80
2018-04-12T05:16:00.091Z,9.00
2018-04-12T05:18:28.410Z,9.00
2018-04-12T05:20:56.741Z,9.10
2018-04-12T05:23:25.145Z,9.20
2018-04-12T05:25:54.215Z,9.40
2018-04-12T05:28:22.553Z,9.40
2018-04-12T05:30:50.871Z,9.50
2018-04-12T05:33:19.184Z,9.60
2018-04-12T05:35:48.273Z,9.70
2018-04-12T05:38:18.367Z,9.90
2018-04-12T05:40:46.687Z,9.80
2018-04-12T05:43:15.755Z,10.00
2018-04-12T05:45:44.057Z,9.90
2018-04-12T05:48:12.393Z,10.00
2018-04-12T05:50:40.708Z,10.10
2018-04-12T05:53:09.022Z,10.20
2018-04-12T05:55:37.318Z,10.20
2018-04-12T05:58:05.636Z,10.30
2018-04-12T06:00:33.942Z,10.30
2018-04-12T06:03:02.264Z,10.40
2018-04-12T06:05:30.623Z,10.40
2018-04-12T06:07:58.941Z,10.50
2018-04-12T06:10:27.311Z,10.60
2018-04-12T06:12:55.623Z,10.60
2018-04-12T06:15:23.917Z,10.70
2018-04-12T06:17:52.219Z,10.80
2018-04-12T06:20:21.324Z,10.90
2018-04-12T06:22:50.467Z,11.00
2018-04-12T06:25:18.801Z,11.00
2018-04-12T06:27:47.893Z,11.30
2018-04-12T06:30:16.992Z,11.40
2018-04-12T06:32:46.095Z,11.50
2018-04-12T06:35:15.243Z,11.60
2018-04-12T06:37:43.601Z,11.60
2018-04-12T06:40:11.915Z,11.70
2018-04-12T06:42:40.221Z,11.80
2018-04-12T06:45:08.525Z,11.90
2018-04-12T06:47:36.859Z,11.90
2018-04-12T06:50:05.242Z,12.00
2018-04-12T06:52:33.593Z,12.10
2018-04-12T06:55:01.913Z,12.20
2018-04-12T06:57:30.214Z,12.20
2018-04-12T06:59:58.546Z,12.30
2018-04-12T07:02:26.844Z,12.40
2018-04-12T07:04:55.177Z,12.50
2018-04-12T07:07:24.255Z,12.50
2018-04-12T07:09:52.552Z,12.50
2018-04-12T07:12:21.540Z,12.60
2018-04-12T07:14:50.853Z,12.80
2018-04-12T07:17:19.937Z,12.90
2018-04-12T07:19:49.032Z,12.90
2018-04-12T07:22:17.352Z,12.90
2018-04-12T07:24:45.661Z,13.00
2018-04-12T07:27:13.982Z,13.00
2018-04-12T07:29:43.077Z,13.10
2018-04-12T07:32:12.154Z,13.10
2018-04-12T07:34:40.571Z,13.00
2018-04-12T07:37:09.262Z,13.10
2018-04-12T07:39:38.341Z,13.10
2018-04-12T07:42:06.660Z,13.10
2018-04-12T07:44:34.961Z,13.10
2018-04-12T07:47:03.303Z,13.10
2018-04-12T07:49:32.378Z,13.20
2018-04-12T07:52:01.445Z,13.30
2018-04-12T07:54:29.767Z,13.20
2018-04-12T07:56:58.852Z,13.40
2018-04-12T07:59:27.174Z,13.30
2018-04-12T08:01:55.492Z,13.40
2018-04-12T08:04:23.812Z,13.50
2018-04-12T08:06:52.909Z,13.60
2018-04-12T08:09:21.994Z,13.70
2018-04-12T08:11:50.308Z,13.60
2018-04-12T08:14:18.619Z,13.70
2018-04-12T08:16:46.974Z,13.80
2018-04-12T08:19:15.281Z,13.80
2018-04-12T08:21:43.734Z,13.70
2018-04-12T08:24:12.029Z,13.80
2018-04-12T08:26:40.440Z,13.90
2018-04-12T08:29:08.779Z,14.20
2018-04-12T08:31:37.095Z,14.40
2018-04-12T08:34:05.419Z,14.50
2018-04-12T08:36:34.530Z,14.90
2018-04-12T08:39:03.683Z,15.10
2018-04-12T08:41:31.995Z,15.00
2018-04-12T08:44:00.321Z,15.20
2018-04-12T08:46:28.639Z,15.40
2018-04-12T08:48:56.975Z,15.60
2018-04-12T08:51:25.287Z,15.60
2018-04-12T08:53:53.668Z,15.70
2018-04-12T08:56:21.983Z,15.90
2018-04-12T08:58:50.299Z,16.10
2018-04-12T09:01:18.669Z,16.30
2018-04-12T09:03:46.940Z,16.60
2018-04-12T09:06:16.012Z,16.90
2018-04-12T09:08:44.363Z,16.90
2018-04-12T09:11:12.694Z,17.00
2018-04-12T09:13:41.758Z,17.30
2018-04-12T09:16:10.874Z,17.30
2018-04-12T09:18:39.168Z,17.20
2018-04-12T09:21:07.468Z,17.20
2018-04-12T09:23:36.572Z,17.10
2018-04-12T09:26:04.878Z,17.10
2018-04-12T09:28:33.199Z,17.10
2018-04-12T09:31:01.529Z,17.00
2018-04-12T09:33:29.862Z,17.00
2018-04-12T09:35:58.191Z,17.00
2018-04-12T09:38:26.532Z,17.00
2018-04-12T09:40:54.853Z,17.00
2018-04-12T09:43:23.179Z,17.00
2018-04-12T09:45:53.455Z,16.90
2018-04-12T09:48:21.780Z,16.90
2018-04-12T09:50:50.106Z,16.90
2018-04-12T09:53:18.421Z,16.90
2018-04-12T09:55:46.730Z,17.00
2018-04-12T09:58:15.787Z,17.00
2018-04-12T10:00:59.085Z,17.00
2018-04-12T10:03:35.651Z,17.10
2018-04-12T10:06:06.256Z,17.10
2018-04-12T10:08:35.610Z,17.10
2018-04-12T10:11:04.114Z,17.10
2018-04-12T10:13:32.429Z,17.10
2018-04-12T10:16:01.519Z,17.30
2018-04-12T10:18:29.839Z,17.20
2018-04-12T10:20:58.971Z,17.60
2018-04-12T10:23:27.312Z,17.50
2018-04-12T10:25:56.409Z,17.70
2018-04-12T10:28:25.503Z,17.60
2018-04-12T10:30:57.365Z,17.50
2018-04-12T10:33:40.910Z,17.50
2018-04-12T10:36:14.978Z,17.40
2018-04-12T10:38:43.318Z,17.30
2018-04-12T10:41:14.136Z,17.30
2018-04-12T10:43:45.528Z,17.40
2018-04-12T10:46:14.254Z,17.40
2018-04-12T10:48:43.180Z,17.60
2018-04-12T10:51:11.496Z,17.90
2018-04-12T10:53:39.866Z,18.00
2018-04-12T10:56:08.213Z,18.10
2018-04-12T10:58:36.571Z,18.10
2018-04-12T11:01:04.959Z,18.10
2018-04-12T11:03:34.619Z,18.20
2018-04-12T11:06:03.861Z,18.40
2018-04-12T11:08:34.153Z,18.30
2018-04-12T11:11:05.815Z,18.80
2018-04-12T11:13:34.330Z,18.80
2018-04-12T11:16:02.668Z,19.30
2018-04-12T11:18:31.071Z,19.70
2018-04-12T11:20:59.315Z,20.00
2018-04-12T11:23:27.701Z,20.20
2018-04-12T11:25:56.764Z,20.80
2018-04-12T11:28:25.635Z,20.80
2018-04-12T11:31:08.300Z,21.20
2018-04-12T11:33:39.094Z,21.90
2018-04-12T11:36:08.420Z,22.30
2018-04-12T11:38:37.509Z,22.50
2018-04-12T11:41:06.362Z,22.50
2018-04-12T11:43:38.802Z,22.80
2018-04-12T11:46:08.387Z,23.10
2018-04-12T11:48:37.902Z,23.00
2018-04-12T11:51:06.216Z,22.90
2018-04-12T11:53:34.533Z,22.80
2018-04-12T11:56:02.860Z,22.50
2018-04-12T11:58:31.495Z,22.20
2018-04-12T12:00:59.933Z,22.00
2018-04-12T12:03:30.215Z,21.80
2018-04-12T12:05:58.540Z,21.80
2018-04-12T12:08:27.632Z,21.80
2018-04-12T12:10:56.823Z,21.70
2018-04-12T12:13:25.346Z,21.70
2018-04-12T12:15:53.677Z,21.70
2018-04-12T12:18:22.014Z,21.70
2018-04-12T12:20:50.329Z,21.70
2018-04-12T12:23:18.809Z,21.70
2018-04-12T12:25:47.135Z,21.60
2018-04-12T12:28:16.250Z,21.30
2018-04-12T12:30:45.993Z,21.30
2018-04-12T12:33:14.305Z,21.10
2018-04-12T12:35:42.643Z,21.00
2018-04-12T12:38:10.969Z,20.90
2018-04-12T12:40:39.287Z,20.70
2018-04-12T12:43:07.604Z,20.60
2018-04-12T12:45:35.928Z,20.30
2018-04-12T12:48:05.018Z,19.70
2018-04-12T12:50:33.408Z,19.60
2018-04-12T12:53:02.484Z,18.90
2018-04-12T12:55:30.799Z,18.90
2018-04-12T12:57:59.885Z,18.30
2018-04-12T13:00:37.132Z,18.10
2018-04-12T13:03:06.369Z,17.90
2018-04-12T13:05:35.504Z,17.70
2018-04-12T13:08:03.848Z,17.60
2018-04-12T13:10:32.194Z,17.50
2018-04-12T13:13:00.544Z,17.40
2018-04-12T13:15:28.926Z,17.20
2018-04-12T13:17:57.265Z,17.00
2018-04-12T13:20:25.593Z,16.80
2018-04-12T13:22:53.902Z,16.60
2018-04-12T13:25:22.272Z,16.50
2018-04-12T13:27:50.812Z,16.40
2018-04-12T13:30:19.279Z,16.40
2018-04-12T13:32:47.755Z,16.40
2018-04-12T13:35:16.065Z,16.40
2018-04-12T13:37:45.902Z,16.30
2018-04-12T13:40:14.227Z,16.30
2018-04-12T13:42:42.595Z,16.20
2018-04-12T13:45:10.911Z,16.10
2018-04-12T13:47:39.222Z,16.00
2018-04-12T13:50:07.528Z,15.80
2018-04-12T13:52:47.872Z,15.70
2018-04-12T13:55:20.059Z,15.60
2018-04-12T13:57:48.405Z,15.50
2018-04-12T14:00:19.212Z,15.40
2018-04-12T14:02:47.941Z,15.40
2018-04-12T14:05:16.254Z,15.20
2018-04-12T14:07:44.558Z,15.10
2018-04-12T14:10:12.982Z,15.00
2018-04-12T14:12:41.307Z,14.90
2018-04-12T14:15:09.617Z,14.90
2018-04-12T14:17:41.573Z,14.90
2018-04-12T14:20:09.896Z,15.10
2018-04-12T14:22:38.604Z,15.20
2018-04-12T14:25:06.944Z,15.40
2018-04-12T14:27:36.475Z,15.90
2018-04-12T14:30:04.816Z,15.90
2018-04-12T14:32:33.308Z,16.10
2018-04-12T14:35:02.404Z,16.40
2018-04-12T14:37:31.165Z,16.40
2018-04-12T14:39:59.839Z,16.50
2018-04-12T14:42:28.339Z,16.60
2018-04-12T14:44:56.681Z,16.80
2018-04-12T14:47:25.089Z,17.00
2018-04-12T14:49:53.503Z,17.10
2018-04-12T14:52:21.813Z,17.30
2018-04-12T14:54:50.176Z,17.50
2018-04-12T14:57:18.520Z,17.70
2018-04-12T14:59:46.851Z,18.00
2018-04-12T15:02:15.798Z,18.50
2018-04-12T15:04:44.121Z,19.10
2018-04-12T15:07:13.213Z,20.50
2018-04-12T15:09:41.542Z,20.50
2018-04-12T15:12:09.895Z,21.50
2018-04-12T15:14:38.975Z,23.90
2018-04-12T15:17:07.311Z,23.80
2018-04-12T15:19:35.637Z,25.30
2018-04-12T15:22:04.011Z,26.50
2018-04-12T15:24:32.840Z,27.30
2018-04-12T15:27:01.959Z,26.90
2018-04-12T15:29:30.320Z,26.90
2018-04-12T15:31:59.500Z,26.10
2018-04-12T15:34:27.796Z,26.10
2018-04-12T15:36:56.877Z,24.60
2018-04-12T15:39:25.196Z,24.60
2018-04-12T15:41:53.497Z,23.60
2018-04-12T15:44:21.796Z,22.70
2018-04-12T15:46:50.419Z,21.80
2018-04-12T15:49:19.550Z,20.00
2018-04-12T15:51:47.857Z,20.00
2018-04-12T15:54:16.155Z,19.30
2018-04-12T15:56:44.461Z,18.80
2018-04-12T15:59:12.818Z,18.30
2018-04-12T16:01:41.154Z,18.00
2018-04-12T16:04:09.587Z,17.70
2018-04-12T16:06:37.883Z,17.40
2018-04-12T16:09:06.230Z,17.10
2018-04-12T16:11:35.935Z,16.90
2018-04-12T16:14:04.297Z,16.70
2018-04-12T16:16:33.346Z,16.30
2018-04-12T16:19:01.678Z,16.30
2018-04-12T16:21:30.241Z,16.10
2018-04-12T16:23:59.427Z,15.80
2018-04-12T16:26:27.789Z,15.80
2018-04-12T16:28:56.128Z,15.70
2018-04-12T16:31:24.451Z,15.60
2018-04-12T16:33:52.771Z,15.50
2018-04-12T16:36:21.916Z,15.40
2018-04-12T16:38:50.222Z,15.40
2018-04-12T16:41:18.529Z,15.40
2018-04-12T16:43:47.601Z,15.50
2018-04-12T16:46:15.923Z,15.40
2018-04-12T16:48:44.279Z,15.50
2018-04-12T16:51:12.589Z,15.50
2018-04-12T16:53:40.909Z,15.40
2018-04-12T16:56:09.237Z,15.40
2018-04-12T16:58:38.302Z,15.30
2018-04-12T17:01:06.624Z,15.20
2018-04-12T17:03:34.979Z,15.20
2018-04-12T17:06:03.308Z,15.20
2018-04-12T17:08:31.632Z,15.20
2018-04-12T17:11:00.244Z,15.10
2018-04-12T17:13:30.100Z,14.90
2018-04-12T17:15:58.419Z,14.90
2018-04-12T17:18:28.266Z,14.80
2018-04-12T17:20:58.685Z,14.60
2018-04-12T17:23:28.348Z,14.40
2018-04-12T17:25:56.802Z,14.20
2018-04-12T17:28:25.099Z,14.00
2018-04-12T17:30:53.406Z,13.80
2018-04-12T17:33:21.718Z,13.60
2018-04-12T17:35:50.068Z,13.50
2018-04-12T17:38:25.629Z,13.40
2018-04-12T17:40:55.911Z,13.20
2018-04-12T17:43:24.771Z,13.10
2018-04-12T17:45:57.085Z,13.00
2018-04-12T17:48:25.494Z,12.90
2018-04-12T17:50:56.140Z,12.80
2018-04-12T17:53:30.658Z,12.70
2018-04-12T17:56:01.446Z,12.70
2018-04-12T17:58:59.099Z,12.60
2018-04-12T18:01:30.018Z,12.50
2018-04-12T18:04:02.764Z,12.30
2018-04-12T18:06:36.199Z,12.20
2018-04-12T18:09:07.646Z,12.10
2018-04-12T18:11:42.377Z,12.00
2018-04-12T18:14:23.183Z,12.00
2018-04-12T18:17:16.193Z,11.90
2018-04-12T18:19:50.823Z,11.80
2018-04-12T18:22:19.296Z,11.70
2018-04-12T18:24:48.655Z,11.50
2018-04-12T18:27:29.040Z,11.50
2018-04-12T18:29:58.384Z,11.30
2018-04-12T18:32:27.074Z,11.30
2018-04-12T18:34:55.660Z,11.20
2018-04-12T18:37:24.186Z,11.20
2018-04-12T18:39:52.774Z,11.10
2018-04-12T18:42:21.445Z,11.10
2018-04-12T18:44:49.990Z,11.10
2018-04-12T18:47:18.379Z,11.00
2018-04-12T18:49:47.461Z,11.00
2018-04-12T18:52:16.227Z,11.00
2018-04-12T18:54:44.552Z,10.90
2018-04-12T18:57:14.136Z,10.90
2018-04-12T18:59:42.862Z,10.90
2018-04-12T19:02:11.992Z,10.90
2018-04-12T19:04:40.353Z,10.90
2018-04-12T19:07:12.426Z,10.90
2018-04-12T19:09:44.946Z,10.90
2018-04-12T19:12:13.270Z,10.90
2018-04-12T19:14:41.580Z,11.00
2018-04-12T19:17:10.131Z,11.00
2018-04-12T19:19:39.219Z,11.10
2018-04-12T19:22:08.291Z,11.20
2018-04-12T19:24:37.550Z,11.20
2018-04-12T19:27:06.110Z,11.20
2018-04-12T19:29:54.410Z,11.30
2018-04-12T19:32:22.796Z,11.20
2018-04-12T19:34:51.202Z,11.30
2018-04-12T19:37:19.535Z,11.30
2018-04-12T19:39:47.868Z,11.30
2018-04-12T19:42:16.203Z,11.30
2018-04-12T19:44:44.563Z,11.40
2018-04-12T19:47:12.965Z,11.40
2018-04-12T19:49:41.399Z,11.40
2018-04-12T19:52:10.173Z,11.40
2018-04-12T19:54:38.577Z,11.40
2018-04-12T19:57:07.018Z,11.40
2018-04-12T19:59:35.346Z,11.50
2018-04-12T20:02:04.491Z,11.50
2018-04-12T20:04:32.870Z,11.50
2018-04-12T20:07:01.255Z,11.50
2018-04-12T20:09:29.594Z,11.50
2018-04-12T20:11:57.908Z,11.50
2018-04-12T20:14:26.215Z,11.50
2018-04-12T20:16:54.521Z,11.50
2018-04-12T20:19:22.855Z,11.50
2018-04-12T20:21:51.164Z,11.40
2018-04-12T20:24:19.494Z,11.40
2018-04-12T20:26:48.583Z,11.40
2018-04-12T20:29:16.962Z,11.40
2018-04-12T20:31:46.043Z,11.50
2018-04-12T20:34:14.349Z,11.40
2018-04-12T20:36:42.813Z,11.40
2018-04-12T20:39:11.112Z,11.40
2018-04-12T20:41:40.194Z,11.40
2018-04-12T20:44:08.639Z,11.40
2018-04-12T20:46:37.740Z,11.40
2018-04-12T20:49:06.121Z,11.40
2018-04-12T20:51:34.462Z,11.40
2018-04-12T20:54:03.550Z,11.40
2018-04-12T20:56:31.912Z,11.40
2018-04-12T20:59:00.209Z,11.40
2018-04-12T21:01:29.270Z,11.40
2018-04-12T21:03:57.610Z,11.40
2018-04-12T21:06:25.946Z,11.40
2018-04-12T21:08:54.447Z,11.40
2018-04-12T21:11:22.774Z,11.40
2018-04-12T21:13:51.093Z,11.40
2018-04-12T21:16:19.406Z,11.40
2018-04-12T21:18:47.716Z,11.40
2018-04-12T21:21:16.036Z,11.40
2018-04-12T21:23:44.366Z,11.30
2018-04-12T21:26:13.492Z,11.30
2018-04-12T21:28:42.769Z,11.30
2018-04-12T21:31:11.224Z,11.20
2018-04-12T21:33:47.391Z,11.10
2018-04-12T21:36:15.711Z,11.00
2018-04-12T21:38:46.277Z,10.80
2018-04-12T21:41:15.260Z,10.80
2018-04-12T21:43:44.050Z,10.70
2018-04-12T21:46:12.502Z,10.60
2018-04-12T21:48:44.635Z,10.40
2018-04-12T21:51:13.002Z,10.40
2018-04-12T21:53:41.868Z,10.30
2018-04-12T21:56:10.308Z,10.30
2018-04-12T21:58:38.620Z,10.20
2018-04-12T22:01:07.143Z,10.10
2018-04-12T22:03:35.432Z,10.00
2018-04-12T22:06:03.756Z,10.00
2018-04-12T22:08:32.827Z,9.90
2018-04-12T22:11:01.244Z,9.90
2018-04-12T22:13:30.365Z,9.90
2018-04-12T22:16:01.001Z,9.90
2018-04-12T22:18:46.927Z,9.80
2018-04-12T22:21:20.051Z,9.80
2018-04-12T22:24:02.677Z,9.80
2018-04-12T22:26:34.877Z,9.80
2018-04-12T22:29:03.250Z,9.80
2018-04-12T22:31:31.564Z,9.80
2018-04-12T22:33:59.876Z,9.80
2018-04-12T22:36:29.005Z,9.80
2018-04-12T22:38:57.316Z,9.80
2018-04-12T22:41:25.618Z,9.80
2018-04-12T22:43:53.931Z,9.80
2018-04-12T22:46:23.173Z,9.80
2018-04-12T22:48:51.530Z,9.80
2018-04-12T22:51:19.835Z,9.80
2018-04-12T22:53:48.163Z,9.70
2018-04-12T22:56:16.608Z,9.70
2018-04-12T22:58:44.952Z,9.60
2018-04-12T23:01:14.254Z,9.60
2018-04-12T23:03:42.601Z,9.60
2018-04-12T23:06:10.937Z,9.60
2018-04-12T23:08:39.281Z,9.60
2018-04-12T23:11:07.587Z,9.70
2018-04-12T23:13:35.899Z,9.90
2018-04-12T23:16:04.281Z,10.00
2018-04-12T23:18:32.618Z,10.10
2018-04-12T23:21:01.696Z,10.20
2018-04-12T23:23:30.133Z,10.20
2018-04-12T23:25:58.438Z,10.20
2018-04-12T23:28:26.786Z,10.30
2018-04-12T23:30:55.159Z,10.40
2018-04-12T23:33:24.251Z,10.60
2018-04-12T23:35:53.513Z,10.70
2018-04-12T23:38:21.844Z,10.60
2018-04-12T23:40:50.932Z,10.90
2018-04-12T23:43:20.023Z,11.00
2018-04-12T23:45:48.357Z,11.00
2018-04-12T23:48:16.664Z,11.10
2018-04-12T23:50:44.975Z,11.10
2018-04-12T23:53:14.053Z,11.30
2018-04-12T23:55:42.375Z,11.20
2018-04-12T23:58:10.679Z,11.30
